Time;durP1;ratioP1;P1;durP2;ratioP2;P2;SDS_P1;SDS_P2;PMS_P1;PMS_P2;Temp;Humidity;BMP_temperature;BMP_pressure;BME280_temperature;BME280_humidity;BME280_pressure;Samples;Min_cycle;Max_cycle;Signal;HPM_P1;HPM_P2
2022/01/31 00:02:18;;;;;;;84.07;11.43;;;4.30;99.90;;;;;;5036238;28;20266;-55
2022/01/31 00:04:43;;;;;;;110.23;14.40;;;4.40;99.90;;;;;;5027480;28;20224;-54
2022/01/31 00:07:10;;;;;;;65.87;8.93;;;4.40;99.90;;;;;;5032221;28;20721;-54
2022/01/31 00:09:37;;;;;;;70.13;9.57;;;4.40;99.90;;;;;;5019238;28;21279;-55
2022/01/31 00:12:08;;;;;;;74.00;9.90;;;4.60;99.90;;;;;;5031005;28;20528;-54
2022/01/31 00:14:45;;;;;;;78.93;10.70;;;4.50;99.90;;;;;;5029359;28;20290;-54
2022/01/31 00:17:12;;;;;;;50.00;7.13;;;4.50;99.90;;;;;;5029953;28;20266;-54
2022/01/31 00:19:38;;;;;;;87.80;11.63;;;4.40;99.90;;;;;;5031489;28;20195;-55
2022/01/31 00:22:06;;;;;;;53.07;7.37;;;4.60;99.90;;;;;;5035074;28;20199;-55
2022/01/31 00:24:33;;;;;;;109.17;14.37;;;4.50;99.90;;;;;;5027052;28;20203;-54
2022/01/31 00:26:59;;;;;;;74.23;10.10;;;4.50;99.90;;;;;;5033851;28;20191;-55
2022/01/31 00:29:25;;;;;;;59.70;8.03;;;4.30;99.90;;;;;;5036382;28;20709;-54
2022/01/31 00:31:51;;;;;;;83.07;11.13;;;4.30;99.90;;;;;;5034636;28;20390;-54
2022/01/31 00:34:17;;;;;;;66.27;9.07;;;4.20;99.90;;;;;;5034387;28;20948;-54
2022/01/31 00:36:43;;;;;;;74.50;10.10;;;;;;;;;;5030499;28;20325;-54
2022/01/31 00:39:08;;;;;;;90.17;12.03;;;4.50;99.90;;;;;;5033100;28;20278;-55
2022/01/31 00:41:34;;;;;;;73.73;10.00;;;4.50;99.90;;;;;;5029513;28;20694;-54
2022/01/31 00:44:15;;;;;;;68.47;9.23;;;4.60;99.90;;;;;;5029751;28;20272;-55
2022/01/31 00:46:47;;;;;;;67.23;9.10;;;4.60;99.90;;;;;;5031551;28;20264;-54
2022/01/31 00:49:23;;;;;;;126.03;16.23;;;4.50;99.90;;;;;;5025432;28;20199;-54
2022/01/31 00:51:49;;;;;;;81.37;10.67;;;4.40;99.90;;;;;;5032657;28;20179;-54
2022/01/31 00:54:15;;;;;;;74.50;9.93;;;4.40;99.90;;;;;;5031689;28;20219;-55
2022/01/31 00:56:40;;;;;;;132.27;17.13;;;4.40;99.90;;;;;;5024878;28;20245;-54
2022/01/31 00:59:06;;;;;;;60.73;8.27;;;2.80;99.90;;;;;;5039729;28;20212;-54
2022/01/31 01:01:32;;;;;;;29.27;4.43;;;4.50;99.90;;;;;;5036232;28;20290;-54
2022/01/31 01:03:58;;;;;;;99.03;13.03;;;;;;;;;;5032101;28;20215;-54
2022/01/31 01:06:23;;;;;;;100.33;13.20;;;4.50;99.90;;;;;;5031764;28;20191;-54
2022/01/31 01:08:48;;;;;;;62.20;8.77;;;4.50;99.90;;;;;;5028645;28;20184;-55
2022/01/31 01:11:14;;;;;;;55.63;7.73;;;4.50;99.90;;;;;;5019612;28;20191;-54
2022/01/31 01:13:40;;;;;;;67.43;9.27;;;4.50;99.90;;;;;;5026588;28;20211;-54
2022/01/31 01:16:05;;;;;;;37.67;5.47;;;4.50;99.90;;;;;;5036197;28;20698;-54
2022/01/31 01:18:31;;;;;;;91.20;12.27;;;4.50;99.90;;;;;;5026623;28;20357;-55
2022/01/31 01:20:56;;;;;;;71.53;9.50;;;4.50;99.90;;;;;;5029074;28;20204;-54
2022/01/31 01:23:22;;;;;;;102.43;13.50;;;4.50;99.90;;;;;;5027375;28;20801;-55
2022/01/31 01:25:48;;;;;;;63.87;8.73;;;4.50;99.90;;;;;;5030842;28;20266;-55
2022/01/31 01:28:13;;;;;;;66.20;9.03;;;4.60;99.90;;;;;;5029354;28;20230;-54
2022/01/31 01:30:39;;;;;;;88.10;11.87;;;4.40;99.90;;;;;;5025915;28;20171;-55
2022/01/31 01:33:10;;;;;;;120.67;16.00;;;4.90;99.90;;;;;;5023398;28;20208;-54
2022/01/31 01:35:38;;;;;;;74.97;10.23;;;4.50;99.90;;;;;;5028565;28;20180;-55
2022/01/31 01:38:06;;;;;;;68.27;9.20;;;4.40;99.90;;;;;;5030115;28;20987;-54
2022/01/31 01:40:34;;;;;;;108.23;14.23;;;4.40;99.90;;;;;;5032064;28;20203;-54
2022/01/31 01:43:00;;;;;;;99.30;12.97;;;4.50;99.90;;;;;;5030121;28;20269;-55
2022/01/31 01:45:25;;;;;;;69.07;9.33;;;4.40;99.90;;;;;;5026964;28;20267;-54
2022/01/31 01:47:51;;;;;;;139.63;18.37;;;4.50;99.90;;;;;;5028410;28;20559;-55
2022/01/31 01:50:17;;;;;;;89.43;11.90;;;4.50;99.90;;;;;;5024082;28;20187;-54
2022/01/31 01:52:43;;;;;;;74.70;10.10;;;;;;;;;;5028808;28;20547;-54
2022/01/31 01:55:09;;;;;;;115.07;15.00;;;5.60;99.90;;;;;;5019926;28;20310;-55
2022/01/31 01:57:35;;;;;;;135.27;17.67;;;4.40;99.90;;;;;;5017991;28;20202;-54
2022/01/31 02:00:01;;;;;;;57.33;7.57;;;4.40;99.90;;;;;;5028650;28;20833;-54
2022/01/31 02:02:26;;;;;;;87.33;11.73;;;4.50;99.90;;;;;;5025045;28;20184;-54
2022/01/31 02:04:52;;;;;;;104.40;14.07;;;4.40;99.90;;;;;;5015994;28;20645;-54
2022/01/31 02:07:19;;;;;;;86.87;11.60;;;4.30;99.90;;;;;;5029754;28;20207;-54
2022/01/31 02:09:52;;;;;;;96.97;12.77;;;4.20;99.90;;;;;;5015766;28;20183;-54
2022/01/31 02:12:18;;;;;;;91.37;12.00;;;4.30;99.90;;;;;;5021139;28;20939;-54
2022/01/31 02:14:44;;;;;;;105.10;13.60;;;4.20;99.90;;;;;;5027277;28;20210;-54
2022/01/31 02:17:10;;;;;;;77.67;10.17;;;4.40;99.90;;;;;;5020102;28;20892;-54
2022/01/31 02:19:35;;;;;;;81.40;11.00;;;4.20;99.90;;;;;;5024152;28;20363;-55
2022/01/31 02:22:01;;;;;;;68.87;9.27;;;4.30;99.90;;;;;;5026762;28;20770;-55
2022/01/31 02:24:28;;;;;;;61.70;8.37;;;4.30;99.90;;;;;;5028051;28;20207;-54
2022/01/31 02:26:53;;;;;;;73.63;9.87;;;4.10;99.90;;;;;;5019159;28;20181;-54
2022/01/31 02:29:19;;;;;;;95.53;12.63;;;4.30;99.90;;;;;;5022446;28;20652;-54
2022/01/31 02:31:46;;;;;;;112.97;14.77;;;4.20;99.90;;;;;;5016500;28;22495;-55
2022/01/31 02:34:12;;;;;;;67.87;8.87;;;4.20;99.90;;;;;;5019482;28;20233;-55
2022/01/31 02:36:38;;;;;;;89.30;11.67;;;4.30;99.90;;;;;;5025243;28;20644;-54
2022/01/31 02:39:05;;;;;;;89.80;11.77;;;4.20;99.90;;;;;;5020498;28;20721;-54
2022/01/31 02:41:31;;;;;;;88.10;11.63;;;4.30;99.90;;;;;;5021675;28;20238;-55
2022/01/31 02:43:57;;;;;;;67.00;9.33;;;4.30;99.90;;;;;;5016814;28;20802;-54
2022/01/31 02:46:25;;;;;;;110.10;14.37;;;4.10;99.90;;;;;;5020849;28;20651;-55
2022/01/31 02:48:53;;;;;;;129.23;17.00;;;4.10;99.90;;;;;;5021177;28;20176;-54
2022/01/31 02:51:24;;;;;;;85.27;11.60;;;4.20;99.90;;;;;;5014080;28;20312;-54
2022/01/31 02:53:50;;;;;;;103.13;13.53;;;4.10;99.90;;;;;;5022659;28;20731;-54
2022/01/31 02:56:15;;;;;;;82.83;11.10;;;4.10;99.90;;;;;;5018056;28;20226;-55
2022/01/31 02:58:41;;;;;;;133.00;17.30;;;4.20;99.90;;;;;;5019352;28;20291;-54
2022/01/31 03:01:07;;;;;;;68.37;9.20;;;4.20;99.90;;;;;;5023023;28;20203;-55
2022/01/31 03:03:32;;;;;;;150.67;19.27;;;4.10;99.90;;;;;;5033689;28;20254;-54
2022/01/31 03:05:58;;;;;;;100.17;13.37;;;4.10;99.90;;;;;;5021699;28;20298;-54
2022/01/31 03:08:24;;;;;;;91.60;12.03;;;4.10;99.90;;;;;;5027529;28;20191;-55
2022/01/31 03:10:51;;;;;;;91.37;11.93;;;3.90;99.90;;;;;;5024215;28;20684;-54
2022/01/31 03:13:17;;;;;;;91.67;12.10;;;3.90;99.90;;;;;;5030066;28;20279;-54
2022/01/31 03:15:43;;;;;;;91.23;11.97;;;4.40;99.90;;;;;;5026078;28;20660;-54
2022/01/31 03:18:08;;;;;;;58.27;7.90;;;4.00;99.90;;;;;;5025072;28;20190;-54
2022/01/31 03:20:34;;;;;;;117.27;15.13;;;3.90;99.90;;;;;;5025429;28;20282;-55
2022/01/31 03:23:01;;;;;;;120.67;15.57;;;4.10;99.90;;;;;;5003846;28;20184;-54
2022/01/31 03:25:27;;;;;;;86.20;11.43;;;4.00;99.90;;;;;;5026232;28;20188;-55
2022/01/31 03:27:52;;;;;;;119.63;15.70;;;4.00;99.90;;;;;;5024259;28;20195;-54
2022/01/31 03:30:20;;;;;;;66.03;8.93;;;3.80;99.90;;;;;;5033123;28;20183;-54
2022/01/31 03:32:47;;;;;;;111.87;14.57;;;;;;;;;;5033061;28;20195;-54
2022/01/31 03:35:13;;;;;;;79.10;10.40;;;3.90;99.90;;;;;;5036134;28;20205;-55
2022/01/31 03:37:38;;;;;;;82.50;11.00;;;4.00;99.90;;;;;;5029396;28;20184;-54
2022/01/31 03:40:06;;;;;;;49.57;6.93;;;3.80;99.90;;;;;;5039216;28;20753;-54
2022/01/31 03:42:32;;;;;;;137.27;17.83;;;3.80;99.90;;;;;;5041847;28;20187;-54
2022/01/31 03:44:58;;;;;;;75.97;10.23;;;3.90;99.90;;;;;;5032143;28;21182;-54
2022/01/31 03:47:24;;;;;;;72.13;9.63;;;3.50;99.90;;;;;;5030623;28;20559;-54
2022/01/31 03:49:50;;;;;;;50.43;7.03;;;3.90;99.90;;;;;;5034392;28;20179;-55
2022/01/31 03:52:16;;;;;;;61.77;8.30;;;4.00;99.90;;;;;;5029296;28;20188;-54
2022/01/31 03:54:42;;;;;;;41.53;5.87;;;4.10;99.90;;;;;;5029650;28;20211;-54
2022/01/31 03:57:08;;;;;;;72.70;9.73;;;3.90;99.90;;;;;;5035334;28;20543;-55
2022/01/31 03:59:33;;;;;;;63.77;8.60;;;4.00;99.90;;;;;;5031740;28;20233;-54
2022/01/31 04:01:59;;;;;;;81.87;10.73;;;4.00;99.90;;;;;;5029961;28;20270;-55
2022/01/31 04:04:25;;;;;;;111.33;18.17;;;4.10;99.90;;;;;;5047475;22;20455;-53
2022/01/31 04:06:50;;;;;;;56.53;11.30;;;4.10;99.90;;;;;;5058318;28;20258;-53
2022/01/31 04:09:16;;;;;;;77.47;14.13;;;4.10;99.90;;;;;;5055332;28;20178;-53
2022/01/31 04:11:43;;;;;;;65.97;12.50;;;4.00;99.90;;;;;;5050090;28;20195;-53
2022/01/31 04:14:09;;;;;;;69.87;12.93;;;3.80;99.90;;;;;;5059680;28;20582;-53
2022/01/31 04:16:35;;;;;;;75.53;13.03;;;3.90;99.90;;;;;;5061139;28;20179;-53
2022/01/31 04:19:00;;;;;;;69.40;12.27;;;3.80;99.90;;;;;;5050210;28;20193;-53
2022/01/31 04:21:26;;;;;;;93.67;15.37;;;4.00;99.90;;;;;;5056673;28;20215;-53
2022/01/31 04:23:53;;;;;;;79.87;13.87;;;3.90;99.90;;;;;;5056530;28;20211;-53
2022/01/31 04:26:19;;;;;;;98.23;16.33;;;3.90;99.90;;;;;;5054908;28;20194;-53
2022/01/31 04:28:48;;;;;;;86.20;14.70;;;3.80;99.90;;;;;;5052424;28;20190;-53
2022/01/31 04:33:50;;;;;;;67.77;12.90;;;3.80;99.90;;;;;;5048502;28;20710;-53
2022/01/31 04:36:17;;;;;;;102.93;16.50;;;3.70;99.90;;;;;;5042133;28;20182;-53
2022/01/31 04:38:44;;;;;;;59.23;11.70;;;3.90;99.90;;;;;;5059813;28;20611;-53
2022/01/31 04:41:09;;;;;;;87.00;15.43;;;3.90;99.90;;;;;;5055886;28;20204;-53
2022/01/31 04:43:35;;;;;;;84.83;15.07;;;3.90;99.90;;;;;;5049756;28;20203;-53
2022/01/31 04:46:04;;;;;;;79.40;13.63;;;3.90;99.90;;;;;;5060997;28;20663;-53
2022/01/31 04:48:30;;;;;;;55.60;11.43;;;3.90;99.90;;;;;;5047454;28;20572;-53
2022/01/31 04:50:55;;;;;;;60.97;11.87;;;3.80;99.90;;;;;;5049226;28;20689;-53
2022/01/31 04:53:21;;;;;;;76.70;13.23;;;3.70;99.90;;;;;;5058642;28;20224;-53
2022/01/31 04:55:47;;;;;;;81.07;13.80;;;3.70;99.90;;;;;;5056876;28;20243;-53
2022/01/31 04:58:12;;;;;;;69.13;12.53;;;3.90;99.90;;;;;;5050378;28;20201;-53
2022/01/31 05:00:39;;;;;;;100.93;17.27;;;4.00;99.90;;;;;;5058474;28;20213;-53
2022/01/31 05:03:11;;;;;;;102.50;16.90;;;4.00;99.90;;;;;;5056729;28;20289;-53
2022/01/31 05:05:37;;;;;;;92.90;15.20;;;4.00;99.90;;;;;;5048885;28;20190;-53
2022/01/31 05:08:03;;;;;;;76.93;13.07;;;3.90;99.90;;;;;;5055574;28;20194;-53
2022/01/31 05:10:28;;;;;;;82.83;14.87;;;4.00;99.90;;;;;;5059090;28;20267;-53
2022/01/31 05:12:54;;;;;;;99.57;16.53;;;3.90;99.90;;;;;;5053469;28;20212;-53
2022/01/31 05:15:20;;;;;;;73.33;13.63;;;3.90;99.90;;;;;;5052380;28;20281;-53
2022/01/31 05:17:45;;;;;;;83.70;14.80;;;3.90;99.90;;;;;;5054260;28;20833;-53
2022/01/31 05:20:11;;;;;;;102.87;17.17;;;3.80;99.90;;;;;;5050683;28;21555;-53
2022/01/31 05:22:36;;;;;;;52.73;10.67;;;3.90;99.90;;;;;;5061181;28;20271;-53
2022/01/31 05:25:02;;;;;;;71.87;12.63;;;4.00;99.90;;;;;;5055671;28;20513;-53
2022/01/31 05:27:28;;;;;;;68.10;12.23;;;4.00;99.90;;;;;;5055020;28;20240;-53
2022/01/31 05:29:53;;;;;;;57.63;11.53;;;4.00;99.90;;;;;;5058206;28;20190;-53
2022/01/31 05:32:19;;;;;;;69.83;13.17;;;4.00;99.90;;;;;;5057927;28;20221;-53
2022/01/31 05:34:44;;;;;;;74.80;13.47;;;3.90;99.90;;;;;;5054478;28;20203;-53
2022/01/31 05:37:10;;;;;;;158.37;24.60;;;4.00;99.90;;;;;;5048052;28;20754;-53
2022/01/31 05:39:35;;;;;;;66.33;12.57;;;3.80;99.90;;;;;;5024933;28;20673;-53
2022/01/31 05:42:01;;;;;;;72.50;13.57;;;3.90;99.90;;;;;;5054486;28;20297;-53
2022/01/31 05:44:26;;;;;;;72.23;12.37;;;3.70;99.90;;;;;;5053430;28;20211;-53
2022/01/31 05:46:52;;;;;;;84.80;14.80;;;3.70;99.90;;;;;;5057807;28;20282;-53
2022/01/31 05:49:18;;;;;;;98.43;16.50;;;3.80;99.90;;;;;;5044326;28;20189;-53
2022/01/31 05:51:54;;;;;;;65.00;12.67;;;3.70;99.90;;;;;;5056081;28;20259;-53
2022/01/31 05:54:24;;;;;;;76.53;13.93;;;3.70;99.90;;;;;;5053462;28;20290;-53
2022/01/31 05:56:50;;;;;;;111.27;18.07;;;3.70;99.90;;;;;;5055178;28;20269;-53
2022/01/31 05:59:16;;;;;;;77.90;13.87;;;3.80;99.90;;;;;;5054416;28;20726;-53
2022/01/31 06:01:42;;;;;;;63.80;11.70;;;3.70;99.90;;;;;;5056955;28;20317;-53
2022/01/31 06:04:08;;;;;;;65.93;12.30;;;3.70;99.90;;;;;;5050429;28;20254;-53
2022/01/31 06:06:35;;;;;;;72.97;12.77;;;3.70;99.90;;;;;;5055185;28;20187;-53
2022/01/31 06:09:01;;;;;;;61.00;11.53;;;3.50;99.90;;;;;;5057104;28;20247;-53
2022/01/31 06:11:26;;;;;;;87.53;14.77;;;3.50;99.90;;;;;;5047659;28;20247;-53
2022/01/31 06:13:55;;;;;;;62.47;11.83;;;3.50;99.90;;;;;;5057518;28;20203;-53
2022/01/31 06:16:20;;;;;;;67.17;12.07;;;3.50;99.90;;;;;;5056834;28;20201;-53
2022/01/31 06:18:46;;;;;;;112.50;18.00;;;3.50;99.90;;;;;;5050719;28;20187;-53
2022/01/31 06:21:12;;;;;;;62.20;11.73;;;3.70;99.90;;;;;;5060788;28;20249;-53
2022/01/31 06:23:38;;;;;;;63.73;12.00;;;3.60;99.90;;;;;;5042457;28;20562;-53
2022/01/31 06:26:04;;;;;;;71.50;12.83;;;3.60;99.90;;;;;;5059055;28;20224;-53
2022/01/31 06:28:30;;;;;;;67.83;12.93;;;3.40;99.90;;;;;;5047433;28;20694;-53
2022/01/31 06:30:56;;;;;;;92.43;15.80;;;;;;;;;;5047764;28;20195;-53
2022/01/31 06:33:21;;;;;;;159.93;24.13;;;3.30;99.90;;;;;;5051065;28;20506;-53
2022/01/31 06:35:47;;;;;;;67.30;12.03;;;3.30;99.90;;;;;;5050562;28;20267;-53
2022/01/31 06:38:13;;;;;;;47.77;10.00;;;3.30;99.90;;;;;;5047826;28;20820;-53
2022/01/31 06:40:39;;;;;;;57.03;11.37;;;3.30;99.90;;;;;;5064804;28;20205;-53
2022/01/31 06:43:05;;;;;;;85.83;15.20;;;3.30;99.90;;;;;;5056309;28;20195;-53
2022/01/31 06:45:30;;;;;;;86.93;15.63;;;3.50;99.90;;;;;;5056499;28;20186;-53
2022/01/31 06:47:56;;;;;;;135.97;20.87;;;3.40;99.90;;;;;;5048233;28;20190;-53
2022/01/31 06:50:23;;;;;;;83.13;14.57;;;3.50;99.90;;;;;;5033844;28;20194;-52
2022/01/31 06:52:53;;;;;;;85.53;14.90;;;3.60;99.90;;;;;;5048083;28;20191;-53
2022/01/31 06:55:20;;;;;;;124.27;20.20;;;3.50;99.90;;;;;;5044769;28;20197;-53
2022/01/31 06:57:46;;;;;;;121.73;19.23;;;3.60;99.90;;;;;;5042510;28;20290;-53
2022/01/31 07:00:13;;;;;;;118.87;19.00;;;3.60;99.90;;;;;;5029587;28;20199;-53
2022/01/31 07:02:38;;;;;;;140.27;22.27;;;3.60;99.90;;;;;;5040526;28;20183;-53
2022/01/31 07:05:04;;;;;;;82.30;15.13;;;3.50;99.90;;;;;;5043162;28;20257;-53
2022/01/31 07:07:30;;;;;;;86.23;14.87;;;3.60;99.90;;;;;;5051247;28;20199;-53
2022/01/31 07:09:56;;;;;;;150.73;23.57;;;3.30;99.90;;;;;;5047933;28;21330;-53
2022/01/31 07:12:29;;;;;;;170.73;26.13;;;3.40;99.90;;;;;;5047188;28;20209;-53
2022/01/31 07:14:54;;;;;;;92.20;16.37;;;3.30;99.90;;;;;;5052072;28;20199;-53
2022/01/31 07:17:20;;;;;;;83.70;15.03;;;3.30;99.90;;;;;;5052429;28;20203;-53
2022/01/31 07:19:45;;;;;;;105.97;17.63;;;4.50;99.90;;;;;;5039165;28;20190;-53
2022/01/31 07:22:14;;;;;;;113.20;18.30;;;3.30;99.90;;;;;;5052010;28;20218;-53
2022/01/31 07:24:47;;;;;;;89.30;15.97;;;3.40;99.90;;;;;;5052943;28;20357;-53
2022/01/31 07:27:14;;;;;;;132.27;20.63;;;3.40;99.90;;;;;;5042070;28;20198;-53
2022/01/31 07:29:40;;;;;;;78.70;14.07;;;3.60;99.90;;;;;;5054135;28;20722;-53
2022/01/31 07:32:12;;;;;;;136.83;21.23;;;3.20;99.90;;;;;;5046684;28;20247;-53
2022/01/31 07:34:40;;;;;;;151.50;23.20;;;3.60;99.90;;;;;;5040084;28;20241;-53
2022/01/31 07:37:07;;;;;;;172.93;26.77;;;;;;;;;;5048288;28;20606;-53
2022/01/31 07:39:33;;;;;;;120.40;19.13;;;3.60;99.90;;;;;;5036508;28;20179;-53
2022/01/31 07:41:59;;;;;;;102.43;16.43;;;3.40;99.90;;;;;;5017166;28;20218;-54
2022/01/31 07:44:24;;;;;;;97.90;16.30;;;3.60;99.90;;;;;;5040374;28;23294;-54
2022/01/31 07:46:52;;;;;;;67.53;11.90;;;3.30;99.90;;;;;;5040942;28;20233;-54
2022/01/31 07:49:17;;;;;;;94.03;16.37;;;3.30;99.90;;;;;;5050075;28;20187;-54
2022/01/31 07:51:43;;;;;;;91.20;16.17;;;3.30;99.90;;;;;;5055250;28;20320;-55
2022/01/31 07:54:09;;;;;;;110.10;17.97;;;3.20;99.90;;;;;;5051220;28;20263;-54
2022/01/31 07:56:35;;;;;;;98.43;16.03;;;3.40;99.90;;;;;;5053920;28;20449;-54
2022/01/31 07:59:00;;;;;;;75.13;13.20;;;5.20;99.90;;;;;;5050380;28;20270;-54
2022/01/31 08:01:26;;;;;;;138.10;22.23;;;3.40;99.90;;;;;;5050474;28;20298;-53
2022/01/31 08:03:52;;;;;;;187.23;27.80;;;3.60;99.90;;;;;;5009171;28;21054;-53
2022/01/31 08:06:18;;;;;;;178.63;26.33;;;3.60;99.90;;;;;;5029988;28;20199;-47
2022/01/31 08:08:43;;;;;;;123.90;19.47;;;3.70;99.90;;;;;;5013092;28;21155;-47
2022/01/31 08:11:09;;;;;;;90.37;14.83;;;4.00;99.90;;;;;;5044361;28;20230;-47
2022/01/31 08:13:35;;;;;;;268.07;38.57;;;;;;;;;;5005777;28;20598;-47
2022/01/31 08:16:13;;;;;;;78.37;13.60;;;4.20;99.90;;;;;;5047125;28;20186;-47
2022/01/31 08:18:42;;;;;;;280.27;41.53;;;4.70;99.90;;;;;;4996833;28;20202;-52
2022/01/31 08:21:09;;;;;;;187.17;29.07;;;4.00;99.90;;;;;;5017164;28;20766;-52
2022/01/31 08:23:35;;;;;;;188.00;28.13;;;3.80;99.90;;;;;;5009435;28;23405;-52
2022/01/31 08:26:04;;;;;;;161.53;25.20;;;4.00;99.90;;;;;;5004321;28;20666;-52
2022/01/31 08:28:43;;;;;;;236.73;35.67;;;;;;;;;;5013211;28;20203;-52
2022/01/31 08:36:16;;;;;;;56.53;11.10;;;;;;;;;;5028282;28;20536;-52
2022/01/31 08:38:43;;;;;;;167.63;26.87;;;3.80;99.90;;;;;;5021760;28;20545;-52
2022/01/31 08:41:10;;;;;;;109.63;18.13;;;3.80;99.90;;;;;;5040414;28;20207;-52
2022/01/31 08:43:36;;;;;;;52.50;11.97;;;3.80;99.90;;;;;;5042629;28;20292;-52
2022/01/31 08:46:03;;;;;;;163.33;25.83;;;3.90;99.90;;;;;;5013756;28;20183;-52
2022/01/31 08:48:30;;;;;;;166.07;26.80;;;3.90;99.90;;;;;;5017054;28;20183;-52
2022/01/31 08:50:56;;;;;;;103.27;17.47;;;3.60;99.90;;;;;;5020738;28;20253;-52
2022/01/31 08:53:23;;;;;;;178.67;28.90;;;3.80;99.90;;;;;;5021677;28;20203;-52
2022/01/31 08:55:54;;;;;;;250.67;38.50;;;3.70;99.90;;;;;;4999260;28;20188;-52
2022/01/31 08:58:21;;;;;;;192.20;29.70;;;3.80;99.90;;;;;;5005692;28;20198;-52
2022/01/31 09:00:49;;;;;;;198.63;30.37;;;3.70;99.90;;;;;;5014204;28;20218;-52
2022/01/31 09:05:41;;;;;;;152.20;24.37;;;3.70;99.90;;;;;;5002630;28;20201;-52
2022/01/31 09:08:07;;;;;;;189.87;29.10;;;3.70;99.90;;;;;;5025636;28;20244;-53
2022/01/31 09:10:33;;;;;;;83.97;14.60;;;3.90;99.90;;;;;;5040117;28;20207;-52
2022/01/31 09:12:59;;;;;;;286.17;41.50;;;;;;;;;;5018638;28;20638;-52
2022/01/31 09:15:25;;;;;;;170.80;26.57;;;3.70;99.90;;;;;;5009687;28;20194;-52
2022/01/31 09:17:51;;;;;;;299.00;45.27;;;3.80;99.90;;;;;;4999137;28;20291;-53
2022/01/31 09:20:17;;;;;;;199.03;30.90;;;3.50;99.90;;;;;;5003152;28;20886;-53
2022/01/31 09:22:43;;;;;;;90.73;16.27;;;4.10;99.90;;;;;;5007289;28;20236;-52
2022/01/31 09:25:14;;;;;;;98.03;16.97;;;4.20;99.90;;;;;;5014017;28;20198;-53
2022/01/31 09:27:40;;;;;;;123.20;22.30;;;;;;;;;;5032481;28;20201;-49
2022/01/31 09:30:07;;;;;;;56.57;12.90;;;4.40;99.90;;;;;;5045634;28;20639;-51
2022/01/31 09:32:34;;;;;;;73.20;15.20;;;;;;;;;;5053777;28;20508;-51
2022/01/31 09:35:00;;;;;;;183.80;30.53;;;;;;;;;;5017904;28;20631;-51
2022/01/31 09:37:26;;;;;;;98.10;17.93;;;;;;;;;;5036130;28;20180;-52
2022/01/31 09:39:53;;;;;;;83.37;17.33;;;;;;;;;;5028513;28;20179;-51
2022/01/31 09:42:29;;;;;;;131.93;24.13;;;;;;;;;;5041076;28;20241;-51
2022/01/31 09:48:31;;;;;;;85.20;17.17;;;;;;;;;;5038399;28;20183;-51
2022/01/31 09:50:10;;;;;;;179.17;30.37;;;;;;;;;;5028098;28;20195;-51
2022/01/31 09:52:36;;;;;;;126.13;22.83;;;;;;;;;;5033935;28;20234;-51
2022/01/31 09:55:02;;;;;;;103.07;19.13;;;;;;;;;;5045236;28;20294;-50
2022/01/31 09:57:28;;;;;;;166.40;27.23;;;;;;;;;;5035137;28;20233;-51
2022/01/31 09:59:54;;;;;;;110.53;20.37;;;;;;;;;;5035179;28;20242;-51
2022/01/31 10:02:20;;;;;;;72.13;15.23;;;;;;;;;;5044772;28;24339;-51
2022/01/31 10:04:48;;;;;;;198.53;28.40;;;4.60;99.90;;;;;;5051750;22;20400;-53
2022/01/31 10:07:14;;;;;;;137.13;20.13;;;;;;;;;;5041660;28;20616;-54
2022/01/31 10:09:43;;;;;;;167.07;24.60;;;;;;;;;;5046114;28;20709;-54
2022/01/31 10:12:21;;;;;;;140.10;20.53;;;4.80;99.90;;;;;;5071017;28;20186;-54
2022/01/31 10:17:40;;;;;;;175.13;25.67;;;4.80;99.90;;;;;;5060287;28;20849;-55
2022/01/31 10:20:06;;;;;;;105.67;15.57;;;;;;;;;;5062915;28;20182;-54
2022/01/31 10:22:34;;;;;;;105.50;15.47;;;4.80;99.90;;;;;;5073690;28;20209;-54
2022/01/31 10:25:07;;;;;;;109.23;16.27;;;4.80;99.90;;;;;;5063181;28;20604;-54
2022/01/31 10:27:34;;;;;;;112.10;16.77;;;4.70;99.90;;;;;;5063205;28;20186;-55
2022/01/31 10:30:14;;;;;;;269.17;40.07;;;4.80;99.90;;;;;;5039248;28;20178;-55
2022/01/31 10:32:42;;;;;;;210.67;30.50;;;;;;;;;;5059905;28;20214;-55
2022/01/31 10:35:10;;;;;;;241.30;37.07;;;4.80;99.90;;;;;;5051041;28;20231;-56
2022/01/31 10:37:40;;;;;;;94.37;14.70;;;4.80;99.90;;;;;;5054264;28;20242;-56
2022/01/31 10:56:38;;;;;;;148.50;24.53;;;4.80;99.90;;;;;;5073521;28;20636;-55
2022/01/31 10:59:08;;;;;;;121.40;20.07;;;5.00;99.90;;;;;;5072553;28;20171;-55
2022/01/31 11:01:34;;;;;;;126.43;21.00;;;;;;;;;;5075837;28;20214;-56
2022/01/31 11:04:05;;;;;;;108.97;17.83;;;5.10;99.90;;;;;;5071967;28;20190;-55
2022/01/31 11:06:32;;;;;;;101.43;16.67;;;5.00;99.90;;;;;;5070611;28;20680;-55
2022/01/31 11:09:03;;;;;;;99.10;16.67;;;5.10;99.90;;;;;;5071551;28;20178;-56
2022/01/31 11:11:31;;;;;;;217.40;34.77;;;8.50;99.90;;;;;;5069105;28;20182;-55
2022/01/31 11:13:57;;;;;;;328.60;51.77;;;;;;;;;;5073404;28;20669;-57
2022/01/31 11:16:24;;;;;;;184.53;30.07;;;5.30;99.90;;;;;;5048416;28;20263;-55
2022/01/31 11:18:50;;;;;;;135.90;21.80;;;;;;;;;;5054211;28;20279;-55
2022/01/31 11:21:17;;;;;;;213.90;35.03;;;4.80;99.90;;;;;;5066799;28;20209;-55
2022/01/31 11:23:49;;;;;;;143.80;24.80;;;5.10;99.90;;;;;;5058453;28;20206;-55
2022/01/31 11:26:18;;;;;;;179.27;29.47;;;5.10;99.90;;;;;;5066820;28;21650;-55
2022/01/31 11:28:47;;;;;;;171.40;30.13;;;4.90;99.90;;;;;;5059037;28;20261;-55
2022/01/31 11:31:16;;;;;;;237.53;41.63;;;5.40;99.90;;;;;;5058398;28;20190;-55
2022/01/31 11:33:42;;;;;;;181.33;31.27;;;8.00;99.90;;;;;;5061510;28;20294;-55
2022/01/31 11:36:08;;;;;;;172.83;28.73;;;;;;;;;;5054932;28;20196;-57
2022/01/31 11:38:34;;;;;;;135.27;23.57;;;;;;;;;;5064729;28;20258;-56
2022/01/31 11:41:03;;;;;;;237.37;37.83;;;5.40;99.90;;;;;;5053235;28;20215;-57
2022/01/31 11:43:31;;;;;;;165.60;27.97;;;5.40;99.90;;;;;;5059553;28;20504;-55
2022/01/31 11:45:59;;;;;;;119.93;19.77;;;5.50;99.90;;;;;;5054330;28;20182;-55
2022/01/31 11:48:26;;;;;;;140.23;23.77;;;5.50;99.90;;;;;;5062083;28;20183;-55
2022/01/31 11:50:55;;;;;;;114.90;19.50;;;5.60;99.90;;;;;;5066650;28;20191;-56
2022/01/31 11:53:33;;;;;;;114.30;19.53;;;5.60;99.90;;;;;;5066368;28;20206;-57
2022/01/31 11:56:08;;;;;;;171.07;30.17;;;5.70;99.90;;;;;;5072034;28;20642;-55
2022/01/31 11:58:42;;;;;;;138.43;23.63;;;5.70;99.90;;;;;;5063852;28;20518;-57
2022/01/31 12:01:08;;;;;;;121.27;20.93;;;;;;;;;;5058237;28;20226;-57
2022/01/31 12:03:35;;;;;;;118.27;20.33;;;6.30;99.90;;;;;;5065189;28;20215;-57
2022/01/31 12:06:09;;;;;;;129.50;22.13;;;5.80;99.90;;;;;;5061056;28;20198;-55
2022/01/31 12:08:38;;;;;;;146.73;24.57;;;;;;;;;;5060650;28;20542;-56
2022/01/31 12:11:13;;;;;;;198.67;32.87;;;5.80;99.90;;;;;;5056881;28;20198;-57
2022/01/31 12:13:41;;;;;;;161.43;26.63;;;;;;;;;;5064719;28;20232;-55
2022/01/31 12:16:30;;;;;;;123.00;20.40;;;5.90;99.90;;;;;;5063006;28;20185;-55
2022/01/31 12:24:27;;;;;;;139.37;23.60;;;6.30;99.90;;;;;;5070663;28;20225;-57
2022/01/31 12:26:53;;;;;;;128.37;22.00;;;;;;;;;;5068420;28;20190;-56
2022/01/31 12:29:22;;;;;;;179.27;30.17;;;6.30;99.90;;;;;;5057364;28;20190;-55
2022/01/31 12:31:51;;;;;;;132.43;23.63;;;6.40;99.90;;;;;;5062916;28;20699;-57
2022/01/31 12:34:22;;;;;;;114.83;20.43;;;6.30;99.90;;;;;;5064403;28;20269;-56
2022/01/31 12:37:03;;;;;;;143.93;26.60;;;6.40;99.90;;;;;;5063796;28;20520;-56
2022/01/31 12:39:36;;;;;;;208.67;37.67;;;6.80;99.90;;;;;;5064873;28;20178;-54
2022/01/31 12:42:31;;;;;;;173.57;30.00;;;;;;;;;;5060436;28;20198;-57
2022/01/31 12:44:57;;;;;;;105.07;18.47;;;;;;;;;;5069190;28;20205;-55
2022/01/31 12:47:23;;;;;;;123.67;21.43;;;;;;;;;;5071844;28;20175;-55
2022/01/31 12:50:24;;;;;;;208.93;35.80;;;7.10;99.90;;;;;;5068000;28;20269;-56
2022/01/31 12:52:50;;;;;;;175.57;31.77;;;;;;;;;;5064942;28;20174;-56
2022/01/31 12:55:16;;;;;;;206.90;36.43;;;;;;;;;;5070125;28;20170;-57
2022/01/31 12:57:50;;;;;;;223.23;40.37;;;7.10;99.90;;;;;;5060555;28;20182;-57
2022/01/31 13:00:30;;;;;;;109.90;19.43;;;7.10;99.90;;;;;;5059594;28;20547;-55
2022/01/31 13:02:56;;;;;;;159.40;26.40;;;;;;;;;;5068124;28;20310;-57
2022/01/31 13:05:40;;;;;;;160.03;27.70;;;7.40;99.70;;;;;;5066887;28;20808;-57
2022/01/31 13:08:19;;;;;;;127.00;22.43;;;7.50;99.80;;;;;;5066854;28;20190;-57
2022/01/31 13:10:46;;;;;;;163.70;30.97;;;;;;;;;;5053160;28;20601;-57
2022/01/31 13:13:12;;;;;;;161.03;29.47;;;;;;;;;;5048021;28;20207;-55
2022/01/31 13:15:38;;;;;;;143.57;26.83;;;;;;;;;;5075915;28;20175;-55
2022/01/31 13:18:05;;;;;;;159.30;28.93;;;7.70;98.70;;;;;;5063934;28;20182;-56
2022/01/31 13:20:32;;;;;;;207.47;39.20;;;7.70;98.60;;;;;;5059888;28;20191;-56
2022/01/31 13:22:58;;;;;;;147.37;27.73;;;;;;;;;;5065362;28;20197;-55
2022/01/31 13:25:24;;;;;;;178.93;33.63;;;;;;;;;;5061680;28;20182;-55
2022/01/31 13:27:50;;;;;;;182.40;33.33;;;;;;;;;;5049724;28;20259;-56